Wetterstation Vordersexau
Wetterdaten: Woche 08.12.14 - 14.12.14 (KW50)
Datum Zeit Temp. A. Feuchte A. Luftdruck Regen Wind Richtung Taupunkt Windchill Windben
08.12.2014 00:00 3,3 C 87 % 992,6 hPa 0,2 l/m 2,2 km/h S-SW 1,3 C 3,3 C 2,2 km/h
08.12.2014 01:00 3,9 C 87 % 992,4 hPa 0,0 l/m 3,6 km/h SW 1,9 C 3,9 C 3,6 km/h
08.12.2014 02:00 3,9 C 86 % 992,8 hPa 0,0 l/m 11,9 km/h S-SW 1,8 C -0,4 C 11,9 km/h
08.12.2014 03:00 3,3 C 87 % 992,4 hPa 0,2 l/m 3,2 km/h W-SW 1,3 C 3,3 C 3,2 km/h
08.12.2014 04:00 3,6 C 87 % 992,6 hPa 0,0 l/m 5,0 km/h SW 1,6 C 3,6 C 5,0 km/h
08.12.2014 05:00 3,5 C 88 % 992,5 hPa 0,0 l/m 0,0 km/h SW 1,7 C 3,5 C 0,0 km/h
08.12.2014 06:00 3,4 C 87 % 992,5 hPa 0,0 l/m 0,0 km/h SW 1,4 C 3,4 C 0,0 km/h
08.12.2014 07:00 2,5 C 88 % 992,8 hPa 0,0 l/m 0,0 km/h S-SW 0,7 C 2,5 C 0,0 km/h
08.12.2014 08:00 2,5 C 88 % 992,7 hPa 0,0 l/m 0,0 km/h W-SW 0,7 C 2,5 C 0,0 km/h
08.12.2014 09:00 5,4 C 87 % 992,5 hPa 0,0 l/m 0,0 km/h S-SW 3,4 C 5,4 C 0,0 km/h
08.12.2014 10:00 6,2 C 84 % 992,5 hPa 0,0 l/m 3,2 km/h W 3,7 C 6,2 C 1,8 km/h
08.12.2014 11:00 5,4 C 85 % 991,7 hPa 0,0 l/m 0,0 km/h W-NW 3,1 C 5,4 C 0,0 km/h
08.12.2014 12:00 5,1 C 86 % 991,2 hPa 0,0 l/m 4,5 km/h W 3,0 C 5,1 C 2,5 km/h
08.12.2014 13:00 4,9 C 86 % 990,4 hPa 0,0 l/m 5,8 km/h S 2,8 C 4,9 C 3,2 km/h
08.12.2014 14:00 5,1 C 86 % 990,2 hPa 0,0 l/m 0,0 km/h SW 3,0 C 5,1 C 0,0 km/h
08.12.2014 15:00 4,7 C 87 % 989,9 hPa 0,0 l/m 0,0 km/h W-NW 2,7 C 4,7 C 0,0 km/h
08.12.2014 16:00 4,2 C 87 % 989,8 hPa 0,0 l/m 8,4 km/h W 2,2 C 2,4 C 4,7 km/h
08.12.2014 17:00 2,9 C 88 % 989,4 hPa 0,2 l/m 22,7 km/h SO 1,1 C -7,0 C 12,6 km/h
08.12.2014 18:00 2,3 C 88 % 988,9 hPa 0,0 l/m 0,0 km/h SO 0,5 C 2,3 C 0,0 km/h
08.12.2014 19:00 1,1 C 88 % 988,9 hPa 0,0 l/m 0,0 km/h O-NO -0,7 C 1,1 C 0,0 km/h
08.12.2014 20:00 0,6 C 88 % 988,7 hPa 0,0 l/m 0,0 km/h O-SO -1,2 C 0,6 C 0,0 km/h
08.12.2014 21:00 -0,1 C 88 % 988,9 hPa 0,0 l/m 0,0 km/h O-SO -1,8 C -0,1 C 0,0 km/h
08.12.2014 22:00 0,3 C 87 % 988,9 hPa 0,0 l/m 0,0 km/h SO -1,6 C 0,3 C 0,0 km/h
08.12.2014 23:00 0,5 C 87 % 989,3 hPa 0,0 l/m 0,0 km/h SO -1,4 C 0,5 C 0,0 km/h
09.12.2014 00:00 1,0 C 86 % 989,8 hPa 0,0 l/m 0,0 km/h SO -1,1 C 1,0 C 0,0 km/h
09.12.2014 01:00 1,3 C 85 % 990,6 hPa 0,2 l/m 0,0 km/h SO -0,9 C 1,3 C 0,0 km/h
09.12.2014 02:00 1,4 C 85 % 991,6 hPa 0,2 l/m 0,0 km/h SO -0,8 C 1,4 C 0,0 km/h
09.12.2014 03:00 1,3 C 85 % 992,3 hPa 0,0 l/m 0,0 km/h SO -0,9 C 1,3 C 0,0 km/h
09.12.2014 04:00 1,4 C 85 % 993,1 hPa 0,0 l/m 0,0 km/h SO -0,8 C 1,4 C 0,0 km/h
09.12.2014 05:00 1,6 C 84 % 993,9 hPa 0,0 l/m 0,0 km/h SO -0,8 C 1,6 C 0,0 km/h
09.12.2014 06:00 1,6 C 84 % 994,8 hPa 0,2 l/m 0,0 km/h SW -0,8 C 1,6 C 0,0 km/h
09.12.2014 07:00 1,6 C 84 % 995,7 hPa 0,0 l/m 0,0 km/h SW -0,8 C 1,6 C 0,0 km/h
09.12.2014 08:00 1,6 C 83 % 997,0 hPa 0,0 l/m 0,0 km/h SW -1,0 C 1,6 C 0,0 km/h
09.12.2014 09:00 1,9 C 83 % 997,7 hPa 0,0 l/m 0,0 km/h N-NO -0,7 C 1,9 C 0,0 km/h
09.12.2014 10:00 2,4 C 83 % 998,3 hPa 0,0 l/m 0,0 km/h N-NO -0,2 C 2,4 C 0,0 km/h
09.12.2014 11:00 2,9 C 83 % 998,3 hPa 0,0 l/m 0,0 km/h N-NO 0,3 C 2,9 C 0,0 km/h
09.12.2014 12:00 3,8 C 85 % 998,8 hPa 0,0 l/m 32,4 km/h N-NO 1,5 C -8,7 C 18,0 km/h
09.12.2014 13:00 3,9 C 86 % 999,4 hPa 0,0 l/m 0,0 km/h N-NO 1,8 C 3,9 C 0,0 km/h
09.12.2014 14:00 3,6 C 87 % 999,7 hPa 0,0 l/m 0,0 km/h N-NO 1,6 C 3,6 C 0,0 km/h
09.12.2014 15:00 3,1 C 88 % 1000,3 hPa 0,0 l/m 0,0 km/h N-NO 1,3 C 3,1 C 0,0 km/h
09.12.2014 16:00 2,5 C 88 % 1000,7 hPa 0,0 l/m 0,0 km/h N-NO 0,7 C 2,5 C 0,0 km/h
09.12.2014 17:00 2,1 C 88 % 1000,7 hPa 0,0 l/m 0,0 km/h N-NO 0,3 C 2,1 C 0,0 km/h
09.12.2014 18:00 1,8 C 88 % 1000,7 hPa 0,0 l/m 0,0 km/h N-NO 0,0 C 1,8 C 0,0 km/h
09.12.2014 19:00 1,7 C 88 % 1001,1 hPa 0,0 l/m 0,0 km/h SO -0,1 C 1,7 C 0,0 km/h
09.12.2014 20:00 1,6 C 87 % 1001,1 hPa 0,0 l/m 1,4 km/h SO -0,3 C 1,6 C 1,4 km/h
09.12.2014 21:00 1,5 C 87 % 1001,2 hPa 0,0 l/m 0,0 km/h SO -0,4 C 1,5 C 0,0 km/h
09.12.2014 22:00 -0,2 C 87 % 1000,6 hPa 0,0 l/m 0,0 km/h SO -2,1 C -0,2 C 0,0 km/h
09.12.2014 23:00 -0,9 C 87 % 1000,3 hPa 0,0 l/m 0,0 km/h SO -2,8 C -0,9 C 0,0 km/h
10.12.2014 00:00 -1,2 C 87 % 1000,3 hPa 0,0 l/m 0,0 km/h SO -3,1 C -1,2 C 0,0 km/h
10.12.2014 01:00 -0,2 C 86 % 999,8 hPa 0,0 l/m 0,0 km/h SO -2,3 C -0,2 C 0,0 km/h
10.12.2014 02:00 -0,7 C 86 % 999,6 hPa 0,0 l/m 0,0 km/h SO -2,7 C -0,7 C 0,0 km/h
10.12.2014 03:00 -1,1 C 86 % 999,8 hPa 0,0 l/m 0,0 km/h SO -3,1 C -1,1 C 0,0 km/h
10.12.2014 04:00 -1,4 C 86 % 998,7 hPa 0,0 l/m 0,0 km/h SO -3,4 C -1,4 C 0,0 km/h
10.12.2014 05:00 -0,9 C 86 % 998,1 hPa 0,0 l/m 0,0 km/h SO -2,9 C -0,9 C 0,0 km/h
10.12.2014 06:00 -0,7 C 85 % 997,7 hPa 0,0 l/m 0,0 km/h SO -2,9 C -0,7 C 0,0 km/h
10.12.2014 07:00 -1,1 C 85 % 996,9 hPa 0,0 l/m 0,0 km/h SO -3,3 C -1,1 C 0,0 km/h
10.12.2014 08:00 -0,9 C 84 % 997,1 hPa 0,0 l/m 0,0 km/h SO -3,3 C -0,9 C 0,0 km/h
10.12.2014 09:00 5,5 C 87 % 996,3 hPa 0,0 l/m 0,0 km/h S-SO 3,5 C 5,5 C 0,0 km/h
10.12.2014 10:00 3,8 C 85 % 996,1 hPa 0,0 l/m 0,0 km/h S 1,5 C 3,8 C 0,0 km/h
10.12.2014 11:00 3,1 C 80 % 995,3 hPa 0,2 l/m 0,0 km/h S-SW -0,0 C 3,1 C 0,0 km/h
10.12.2014 12:00 3,6 C 81 % 993,9 hPa 0,0 l/m 0,0 km/h W 0,7 C 3,6 C 0,0 km/h
10.12.2014 13:00 4,9 C 77 % 992,9 hPa 0,0 l/m 2,6 km/h SW 1,2 C 4,9 C 1,4 km/h
10.12.2014 14:00 5,0 C 76 % 992,8 hPa 0,0 l/m 1,3 km/h W-SW 1,1 C 5,0 C 0,7 km/h
10.12.2014 15:00 4,4 C 79 % 992,7 hPa 0,0 l/m 1,3 km/h W 1,1 C 4,4 C 0,7 km/h
10.12.2014 16:00 4,3 C 82 % 992,7 hPa 0,0 l/m 0,0 km/h N 1,5 C 4,3 C 0,0 km/h
10.12.2014 17:00 4,6 C 83 % 992,6 hPa 0,0 l/m 0,0 km/h W 2,0 C 4,6 C 0,0 km/h
10.12.2014 18:00 4,2 C 86 % 992,6 hPa 0,0 l/m 1,3 km/h W 2,1 C 4,2 C 0,7 km/h
10.12.2014 19:00 4,3 C 87 % 992,6 hPa 0,0 l/m 1,8 km/h SW 2,3 C 4,3 C 1,8 km/h
10.12.2014 20:00 4,8 C 87 % 992,3 hPa 0,0 l/m 4,3 km/h W-SW 2,8 C 4,8 C 4,3 km/h
10.12.2014 21:00 4,9 C 87 % 991,9 hPa 0,0 l/m 13,7 km/h W-SW 2,9 C -0,4 C 13,7 km/h
10.12.2014 22:00 5,0 C 87 % 991,7 hPa 0,2 l/m 2,2 km/h SW 3,0 C 5,0 C 2,2 km/h
10.12.2014 23:00 5,2 C 87 % 990,9 hPa 0,0 l/m 0,0 km/h W 3,2 C 5,2 C 0,0 km/h
11.12.2014 00:00 5,3 C 87 % 990,8 hPa 0,0 l/m 10,8 km/h W-SW 3,3 C 1,9 C 10,8 km/h
11.12.2014 01:00 4,5 C 87 % 990,9 hPa 0,0 l/m 1,1 km/h SW 2,5 C 4,5 C 1,1 km/h
11.12.2014 02:00 4,6 C 86 % 990,8 hPa 0,2 l/m 5,4 km/h SW 2,5 C 4,6 C 5,4 km/h
11.12.2014 03:00 5,0 C 87 % 990,5 hPa 0,0 l/m 11,2 km/h W-SW 3,0 C 1,3 C 11,2 km/h
11.12.2014 04:00 5,3 C 87 % 990,3 hPa 0,0 l/m 9,7 km/h S-SW 3,3 C 2,6 C 9,7 km/h
11.12.2014 05:00 5,2 C 87 % 989,8 hPa 0,0 l/m 4,7 km/h S-SW 3,2 C 5,2 C 4,7 km/h
11.12.2014 06:00 5,6 C 88 % 989,8 hPa 0,0 l/m 19,4 km/h SW 3,8 C -2,2 C 10,8 km/h
11.12.2014 07:00 5,9 C 87 % 989,7 hPa 0,0 l/m 23,3 km/h SW 3,9 C -3,2 C 13,0 km/h
11.12.2014 08:00 5,9 C 87 % 989,7 hPa 0,0 l/m 14,3 km/h W-SW 3,9 C 0,5 C 7,9 km/h
11.12.2014 09:00 6,1 C 87 % 990,3 hPa 0,0 l/m 24,0 km/h SW 4,1 C -3,1 C 13,3 km/h
11.12.2014 10:00 6,1 C 87 % 990,3 hPa 0,0 l/m 44,7 km/h W-SW 4,1 C -7,6 C 24,8 km/h
11.12.2014 11:00 7,3 C 83 % 989,9 hPa 0,0 l/m 19,4 km/h W 4,6 C 0,0 C 10,8 km/h
11.12.2014 12:00 7,6 C 80 % 989,3 hPa 0,0 l/m 16,8 km/h S-SW 4,4 C 1,4 C 9,4 km/h
11.12.2014 13:00 7,6 C 79 % 988,6 hPa 0,0 l/m 20,7 km/h S-SW 4,2 C -0,1 C 11,5 km/h
11.12.2014 14:00 7,9 C 76 % 988,5 hPa 0,0 l/m 33,0 km/h W-SW 3,9 C -3,0 C 18,4 km/h
11.12.2014 15:00 7,3 C 77 % 988,4 hPa 0,0 l/m 22,7 km/h SW 3,5 C -1,1 C 12,6 km/h
11.12.2014 16:00 6,8 C 80 % 989,0 hPa 0,0 l/m 22,0 km/h S-SW 3,6 C -1,6 C 12,2 km/h
11.12.2014 17:00 6,9 C 81 % 989,2 hPa 0,0 l/m 21,4 km/h SW 3,9 C -1,2 C 11,9 km/h
11.12.2014 18:00 7,0 C 81 % 989,8 hPa 0,0 l/m 45,4 km/h W-SW 4,0 C -6,4 C 25,2 km/h
11.12.2014 19:00 6,9 C 83 % 989,9 hPa 0,0 l/m 17,6 km/h W-NW 4,2 C 0,2 C 17,6 km/h
11.12.2014 20:00 6,9 C 83 % 989,9 hPa 0,0 l/m 9,0 km/h W-SW 4,2 C 4,9 C 9,0 km/h
11.12.2014 21:00 7,3 C 81 % 989,9 hPa 0,0 l/m 21,6 km/h W-SW 4,3 C -0,8 C 21,6 km/h
11.12.2014 22:00 6,9 C 83 % 989,7 hPa 0,0 l/m 19,4 km/h W-SW 4,2 C -0,5 C 19,4 km/h
11.12.2014 23:00 7,2 C 82 % 990,0 hPa 0,0 l/m 12,6 km/h W-SW 4,3 C 3,0 C 12,6 km/h
12.12.2014 00:00 7,1 C 81 % 989,2 hPa 0,0 l/m 5,8 km/h SW 4,1 C 7,1 C 5,8 km/h
12.12.2014 01:00 7,1 C 81 % 988,5 hPa 0,0 l/m 3,6 km/h S-SW 4,1 C 7,1 C 3,6 km/h
12.12.2014 02:00 7,2 C 79 % 988,1 hPa 0,0 l/m 10,4 km/h W-NW 3,8 C 4,2 C 10,4 km/h
12.12.2014 03:00 6,6 C 80 % 987,1 hPa 0,0 l/m 10,8 km/h SW 3,4 C 3,3 C 10,8 km/h
12.12.2014 04:00 6,5 C 80 % 986,1 hPa 0,0 l/m 19,8 km/h W-SW 3,3 C -1,2 C 19,8 km/h
12.12.2014 05:00 6,6 C 78 % 985,8 hPa 0,0 l/m 11,2 km/h W-SW 3,0 C 3,1 C 11,2 km/h
12.12.2014 06:00 6,4 C 78 % 984,9 hPa 0,0 l/m 41,5 km/h SW 2,8 C -6,7 C 23,0 km/h
12.12.2014 07:00 6,4 C 76 % 983,7 hPa 0,0 l/m 8,4 km/h W-SW 2,5 C 4,8 C 4,7 km/h
12.12.2014 08:00 6,7 C 75 % 984,0 hPa 0,0 l/m 22,0 km/h SW 2,6 C -1,7 C 12,2 km/h
12.12.2014 09:00 9,6 C 69 % 983,7 hPa 0,0 l/m 22,7 km/h S-SW 4,2 C 1,9 C 12,6 km/h
12.12.2014 10:00 10,9 C 62 % 983,2 hPa 0,0 l/m 36,9 km/h W-SW 3,9 C 0,7 C 20,5 km/h
12.12.2014 11:00 10,6 C 63 % 982,6 hPa 0,0 l/m 29,8 km/h W-SW 3,9 C 1,5 C 16,6 km/h
12.12.2014 12:00 9,3 C 67 % 981,9 hPa 0,0 l/m 22,0 km/h SW 3,5 C 1,7 C 12,2 km/h
12.12.2014 13:00 9,5 C 66 % 981,3 hPa 0,0 l/m 24,0 km/h SW 3,5 C 1,4 C 13,3 km/h
12.12.2014 14:00 9,6 C 65 % 980,8 hPa 0,0 l/m 11,7 km/h SW 3,4 C 6,2 C 6,5 km/h
12.12.2014 15:00 9,6 C 67 % 980,6 hPa 0,0 l/m 24,0 km/h SW 3,8 C 1,6 C 13,3 km/h
12.12.2014 16:00 9,6 C 67 % 980,4 hPa 0,0 l/m 9,7 km/h SW 3,8 C 7,3 C 5,4 km/h
12.12.2014 17:00 10,3 C 65 % 979,8 hPa 0,0 l/m 8,4 km/h W-SW 4,0 C 8,9 C 4,7 km/h
12.12.2014 18:00 10,5 C 63 % 980,3 hPa 0,0 l/m 20,7 km/h W-SW 3,8 C 3,7 C 11,5 km/h
12.12.2014 19:00 9,2 C 67 % 980,1 hPa 0,0 l/m 7,9 km/h SW 3,4 C 8,1 C 7,9 km/h
12.12.2014 20:00 8,9 C 66 % 980,3 hPa 0,0 l/m 5,4 km/h W-SW 2,9 C 8,9 C 5,4 km/h
12.12.2014 21:00 9,3 C 62 % 980,7 hPa 0,0 l/m 10,1 km/h SW 2,4 C 6,8 C 10,1 km/h
12.12.2014 22:00 9,9 C 60 % 980,6 hPa 0,0 l/m 11,5 km/h S-SW 2,5 C 6,7 C 11,5 km/h
12.12.2014 23:00 9,3 C 61 % 981,3 hPa 0,0 l/m 14,4 km/h W-SW 2,2 C 4,6 C 14,4 km/h
13.12.2014 00:00 9,6 C 63 % 981,0 hPa 0,0 l/m 13,0 km/h S-SW 2,9 C 5,6 C 13,0 km/h
13.12.2014 01:00 9,3 C 66 % 980,4 hPa 0,0 l/m 6,1 km/h S-SW 3,3 C 9,3 C 6,1 km/h
13.12.2014 02:00 9,4 C 64 % 981,1 hPa 0,0 l/m 14,4 km/h S 2,9 C 4,7 C 14,4 km/h
13.12.2014 03:00 8,6 C 66 % 981,4 hPa 0,0 l/m 3,6 km/h SW 2,6 C 8,6 C 3,6 km/h
13.12.2014 04:00 8,4 C 68 % 981,1 hPa 0,0 l/m 12,6 km/h W-SW 2,8 C 4,4 C 12,6 km/h
13.12.2014 05:00 9,1 C 68 % 981,1 hPa 0,0 l/m 12,6 km/h S 3,5 C 5,2 C 12,6 km/h
13.12.2014 06:00 8,9 C 67 % 981,4 hPa 0,0 l/m 4,5 km/h O-SO 3,1 C 8,9 C 2,5 km/h
13.12.2014 07:00 6,4 C 72 % 981,9 hPa 0,0 l/m 0,0 km/h S-SW 1,7 C 6,4 C 0,0 km/h
13.12.2014 08:00 9,1 C 73 % 982,4 hPa 0,0 l/m 14,3 km/h SW 4,5 C 4,4 C 7,9 km/h
13.12.2014 09:00 10,4 C 68 % 982,8 hPa 0,0 l/m 6,5 km/h S-SO 4,8 C 10,4 C 3,6 km/h
13.12.2014 10:00 10,8 C 68 % 983,1 hPa 0,0 l/m 2,6 km/h W-SW 5,1 C 10,8 C 1,4 km/h
13.12.2014 11:00 12,4 C 64 % 983,1 hPa 0,0 l/m 8,4 km/h W-SW 5,8 C 11,1 C 4,7 km/h
13.12.2014 12:00 14,4 C 58 % 982,6 hPa 0,0 l/m 11,0 km/h W-SW 6,2 C 12,0 C 6,1 km/h
13.12.2014 13:00 13,9 C 58 % 982,6 hPa 0,0 l/m 18,1 km/h S-SW 5,8 C 8,9 C 10,1 km/h
13.12.2014 14:00 13,2 C 61 % 982,6 hPa 0,0 l/m 20,1 km/h S-SW 5,8 C 7,4 C 11,2 km/h
13.12.2014 15:00 12,4 C 62 % 983,1 hPa 0,0 l/m 0,0 km/h W 5,3 C 12,4 C 0,0 km/h
13.12.2014 16:00 12,2 C 64 % 983,4 hPa 0,0 l/m 15,6 km/h W-SW 5,6 C 7,6 C 8,6 km/h
13.12.2014 17:00 11,8 C 68 % 983,6 hPa 0,0 l/m 1,3 km/h S-SW 6,1 C 11,8 C 0,7 km/h
13.12.2014 18:00 10,5 C 71 % 983,9 hPa 0,0 l/m 0,0 km/h SW 5,5 C 10,5 C 0,0 km/h
13.12.2014 19:00 10,5 C 71 % 984,3 hPa 0,0 l/m 0,0 km/h S 5,5 C 10,5 C 0,0 km/h
13.12.2014 20:00 10,7 C 73 % 984,4 hPa 0,0 l/m 0,0 km/h S-SW 6,1 C 10,7 C 0,0 km/h
13.12.2014 21:00 9,9 C 79 % 985,0 hPa 0,0 l/m 5,8 km/h S-SW 6,4 C 9,9 C 5,8 km/h
13.12.2014 22:00 9,5 C 84 % 985,2 hPa 0,0 l/m 4,3 km/h S-SO 6,9 C 9,5 C 4,3 km/h
13.12.2014 23:00 8,9 C 85 % 985,7 hPa 0,2 l/m 0,0 km/h SO 6,5 C 8,9 C 0,0 km/h
14.12.2014 00:00 8,8 C 86 % 985,3 hPa 0,2 l/m 0,0 km/h SO 6,6 C 8,8 C 0,0 km/h
14.12.2014 01:00 9,1 C 86 % 985,4 hPa 0,2 l/m 2,5 km/h S 6,9 C 9,1 C 2,5 km/h
14.12.2014 02:00 9,3 C 86 % 985,8 hPa 0,0 l/m 1,8 km/h S-SO 7,1 C 9,3 C 1,8 km/h
14.12.2014 03:00 9,8 C 86 % 985,6 hPa 0,0 l/m 0,0 km/h S 7,6 C 9,8 C 0,0 km/h
14.12.2014 04:00 10,1 C 85 % 985,4 hPa 0,0 l/m 0,0 km/h S 7,7 C 10,1 C 0,0 km/h
14.12.2014 05:00 9,9 C 83 % 985,7 hPa 0,0 l/m 0,0 km/h S 7,2 C 9,9 C 0,0 km/h
14.12.2014 06:00 9,8 C 83 % 985,9 hPa 0,0 l/m 1,9 km/h S-SW 7,1 C 9,8 C 1,1 km/h
14.12.2014 07:00 10,4 C 83 % 986,3 hPa 0,0 l/m 11,0 km/h W-SW 7,6 C 7,5 C 6,1 km/h
14.12.2014 08:00 10,6 C 81 % 986,9 hPa 0,0 l/m 25,3 km/h SW 7,5 C 2,6 C 14,0 km/h
14.12.2014 09:00 10,4 C 83 % 987,3 hPa 0,0 l/m 0,0 km/h W 7,6 C 10,4 C 0,0 km/h
14.12.2014 10:00 10,4 C 83 % 987,7 hPa 0,0 l/m 0,0 km/h W-NW 7,6 C 10,4 C 0,0 km/h
14.12.2014 11:00 9,9 C 85 % 987,4 hPa 0,2 l/m 0,0 km/h W-NW 7,5 C 9,9 C 0,0 km/h
14.12.2014 12:00 9,9 C 85 % 987,3 hPa 0,0 l/m 0,0 km/h W-NW 7,5 C 9,9 C 0,0 km/h
14.12.2014 13:00 10,9 C 85 % 986,9 hPa 0,0 l/m 0,0 km/h SO 8,5 C 10,9 C 0,0 km/h
14.12.2014 14:00 10,8 C 85 % 986,7 hPa 0,0 l/m 0,0 km/h SO 8,4 C 10,8 C 0,0 km/h
14.12.2014 15:00 9,7 C 86 % 986,9 hPa 0,0 l/m 0,0 km/h O-SO 7,5 C 9,7 C 0,0 km/h
14.12.2014 16:00 8,9 C 87 % 987,1 hPa 0,0 l/m 0,0 km/h O-SO 6,9 C 8,9 C 0,0 km/h
14.12.2014 17:00 8,4 C 86 % 987,5 hPa 0,0 l/m 33,7 km/h O-SO 6,2 C -2,4 C 18,7 km/h
14.12.2014 18:00 8,2 C 86 % 987,3 hPa 0,0 l/m 0,0 km/h O-SO 6,0 C 8,2 C 0,0 km/h
14.12.2014 19:00 8,4 C 86 % 987,5 hPa 0,0 l/m 0,0 km/h O-SO 6,2 C 8,4 C 0,0 km/h
14.12.2014 20:00 8,1 C 86 % 987,7 hPa 0,0 l/m 0,0 km/h O-SO 5,9 C 8,1 C 0,0 km/h
14.12.2014 21:00 7,8 C 86 % 987,4 hPa 0,0 l/m 0,0 km/h O-SO 5,6 C 7,8 C 0,0 km/h
14.12.2014 22:00 7,9 C 86 % 987,6 hPa 0,0 l/m 0,0 km/h O-SO 5,7 C 7,9 C 0,0 km/h
14.12.2014 23:00 7,7 C 85 % 987,7 hPa 0,0 l/m 0,0 km/h O-SO 5,3 C 7,7 C 0,0 km/h
Min-Datum _ 10.12.14 13.12.14 12.12.14 - 08.12.14 - 10.12.14 09.12.14 08.12.14
_ Min-Zeit 04:53 12:53 17:53 - 05:53 - 04:53 12:53 05:53
Minimum _ -1,4 C 58 % 979,8 hPa - 0,0 km/h - -3,4 C -8,7 C 0,0 km/h
Max-Datum _ 13.12.14 08.12.14 09.12.14 08.12.14 11.12.14 - 14.12.14 13.12.14 11.12.14
_ Max-Zeit 12:53 05:53 21:53 00:53 18:53 - 13:53 15:53 18:53
Maximum _ 14,4 C 88 % 1001,2 hPa 0,2 l/m 45,4 km/h
W-SW
- 8,5 C 12,4 C 25,2 km/h
W-SW
Durchschnitt _ 6,1 C 81 % 989,4 hPa #2,7 l/m 7,3 km/h SW 2,9 C 3,9 C 5,0 km/h
www.sexauwetter.de